TimeCET,TemperatureF,Dew PointF,Humidity,Sea Level PressureIn,VisibilityMPH,Wind Direction,Wind SpeedMPH,Gust SpeedMPH,PrecipitationIn,Events,Conditions,WindDirDegrees,DateUTC
6:00 AM,64.4,62.6,94,30.09,1.9,ENE,13.8,25.3,N/A,,Drizzle,60,2012-11-07 05:00:00
6:30 AM,64.4,62.6,94,30.09,1.9,ENE,15.0,-,N/A,,Drizzle,60,2012-11-07 05:30:00
7:00 AM,64,61,88,30.10,2,ENE,16.1,,,Rain,Light Drizzle,60,2012-11-07 06:00:00
7:00 AM,64.4,62.6,94,30.09,2.2,ENE,16.1,29.9,N/A,,Drizzle,60,2012-11-07 06:00:00
7:30 AM,64.4,62.6,94,30.12,2.5,ENE,16.1,-,N/A,,Drizzle,60,2012-11-07 06:30:00
8:00 AM,64.4,62.6,94,30.09,2.2,ENE,18.4,-,N/A,,Drizzle,60,2012-11-07 07:00:00
8:30 AM,64.4,62.6,94,30.12,2.5,ENE,16.1,27.6,N/A,,Light Drizzle,60,2012-11-07 07:30:00
9:00 AM,66.2,62.6,88,30.12,2.5,NE,15.0,26.5,N/A,,Light Drizzle,50,2012-11-07 08:00:00
10:00 AM,64.4,62.6,94,30.15,2.5,NE,18.4,31.1,N/A,,Light Drizzle,40,2012-11-07 09:00:00
10:30 AM,64.4,62.6,94,30.15,2.2,NE,19.6,-,N/A,,Light Drizzle,50,2012-11-07 09:30:00
11:00 AM,64.4,62.6,94,30.15,2.2,NE,18.4,32.2,N/A,,Light Drizzle,50,2012-11-07 10:00:00
11:30 AM,64.4,62.6,94,30.15,2.2,ENE,18.4,-,N/A,,Light Drizzle,60,2012-11-07 10:30:00
12:00 PM,64.4,62.6,94,30.15,2.2,ENE,20.7,-,N/A,,Light Drizzle,60,2012-11-07 11:00:00
12:30 PM,64.4,62.6,94,30.12,2.5,ENE,19.6,32.2,N/A,,Light Drizzle,70,2012-11-07 11:30:00
1:00 PM,66,60,75,30.12,2,NE,18.4,,,Rain,Light Drizzle,50,2012-11-07 12:00:00
1:00 PM,64.4,62.6,94,30.12,2.5,NE,18.4,31.1,N/A,,Light Drizzle,50,2012-11-07 12:00:00
1:30 PM,64.4,62.6,94,30.12,2.5,ENE,18.4,32.2,N/A,,Light Drizzle,60,2012-11-07 12:30:00
2:00 PM,64.4,62.6,94,30.09,2.5,ENE,17.3,28.8,N/A,,Light Drizzle,60,2012-11-07 13:00:00
2:30 PM,64.4,62.6,94,30.09,2.5,ENE,20.7,32.2,N/A,,Light Drizzle,60,2012-11-07 13:30:00
3:00 PM,64.4,62.6,94,30.09,2.5,ENE,18.4,33.4,N/A,,Light Drizzle,60,2012-11-07 14:00:00
3:30 PM,66.2,62.6,88,30.09,2.5,ENE,19.6,31.1,N/A,,Light Drizzle,60,2012-11-07 14:30:00
4:00 PM,66.2,62.6,88,30.09,3.1,NE,17.3,28.8,N/A,,Light Drizzle,50,2012-11-07 15:00:00
4:30 PM,66.2,62.6,88,30.12,3.7,NE,15.0,-,N/A,,Mostly Cloudy,40,2012-11-07 15:30:00
5:00 PM,66.2,62.6,88,30.12,3.7,NE,16.1,28.8,N/A,,Mostly Cloudy,50,2012-11-07 16:00:00
5:30 PM,66.2,62.6,88,30.12,3.7,NE,15.0,26.5,N/A,,Mostly Cloudy,40,2012-11-07 16:30:00
6:00 PM,66.2,62.6,88,30.12,3.1,NE,16.1,-,N/A,,Light Drizzle,40,2012-11-07 17:00:00
6:30 PM,66.2,62.6,88,30.12,3.7,NE,13.8,-,N/A,,Mostly Cloudy,40,2012-11-07 17:30:00
7:00 PM,65,62,87,30.13,3,NE,12.7,,,Rain,Light Drizzle,40,2012-11-07 18:00:00
7:00 PM,66.2,62.6,88,30.12,3.1,NE,12.7,-,N/A,,Drizzle,40,2012-11-07 18:00:00
7:30 PM,66.2,62.6,88,30.15,3.7,NE,11.5,-,N/A,,Mostly Cloudy,40,2012-11-07 18:30:00